Skip Navigation Links Skip Navigation Links

Current Weather

General Mitchell International, Milwaukee

For information only: do not use for flight planning or navigation.
Latest weather
Observation time Sunday, May 31, 2020 7:52 AM CDT
Local time Sunday, May 31, 2020 8:08 AM CDT
Flight conditions Visual Meteorological Conditions
Winds
Wind direction Southeast (140°)
Wind speed 8 mph
Visibility 10 mi.
Sky condition
Ceiling unlimited
Cloud layer few clouds 25,000 ft.
Temperature 53°F
Dewpoint 35°F
Altimeter 30.37 in.Hg
Derived measurements
Relative humidity 50%
Density altitude -77 ft.
Sea-level pressure 30.38 in.Hg
Remarks
Automated weather observing station with precipitation discriminator.
METAR KMKE 311252Z 14007KT 10SM FEW250 12/02 A3037 RMK AO2 SLP287 T01170017

Settings

Location code

InnerDrive.Weather 4.0.6770.0 Release CLR 4.0.30319.42000
Copyright ©2018 Inner Drive Technology. All rights reserved. Portions Copyright ©1986-2018 David Braverman.

Find weather

Site navigation


Skip Navigation Links

Place info

Page info

PayPal - The safer, easier way to pay online!

Return home.

Copyright ©2020 Inner Drive Technology. Purveyors of fine, hand-crafted computer software. Page printed 2020-05-31T13:08:19 UTC.